sensor_id;sensor_type;location;lat;lon;timestamp;P1;durP1;ratioP1;P2;durP2;ratioP2
51764;SDS011;37835;53.256;6.456;2023-12-29T00:01:15;13.95;;;3.88;;
51764;SDS011;37835;53.256;6.456;2023-12-29T00:03:41;17.75;;;3.40;;
51764;SDS011;37835;53.256;6.456;2023-12-29T00:06:07;18.40;;;3.60;;
51764;SDS011;37835;53.256;6.456;2023-12-29T00:08:33;19.52;;;3.35;;
51764;SDS011;37835;53.256;6.456;2023-12-29T00:10:59;19.67;;;3.42;;
51764;SDS011;37835;53.256;6.456;2023-12-29T00:13:25;16.20;;;3.10;;
51764;SDS011;37835;53.256;6.456;2023-12-29T00:15:51;17.05;;;3.05;;
51764;SDS011;37835;53.256;6.456;2023-12-29T00:18:17;17.63;;;3.20;;
51764;SDS011;37835;53.256;6.456;2023-12-29T00:20:43;17.58;;;2.83;;
51764;SDS011;37835;53.256;6.456;2023-12-29T00:23:09;21.35;;;3.92;;
51764;SDS011;37835;53.256;6.456;2023-12-29T00:25:38;15.80;;;3.33;;
51764;SDS011;37835;53.256;6.456;2023-12-29T00:28:04;24.35;;;4.43;;
51764;SDS011;37835;53.256;6.456;2023-12-29T00:30:30;17.35;;;3.60;;
51764;SDS011;37835;53.256;6.456;2023-12-29T00:32:56;17.95;;;3.28;;
51764;SDS011;37835;53.256;6.456;2023-12-29T00:35:22;23.17;;;4.40;;
51764;SDS011;37835;53.256;6.456;2023-12-29T00:37:47;15.77;;;3.13;;
51764;SDS011;37835;53.256;6.456;2023-12-29T00:40:14;19.23;;;3.90;;
51764;SDS011;37835;53.256;6.456;2023-12-29T00:42:40;24.05;;;3.60;;
51764;SDS011;37835;53.256;6.456;2023-12-29T00:45:06;17.05;;;2.92;;
51764;SDS011;37835;53.256;6.456;2023-12-29T00:47:32;25.70;;;4.43;;
51764;SDS011;37835;53.256;6.456;2023-12-29T00:49:57;15.02;;;3.00;;
51764;SDS011;37835;53.256;6.456;2023-12-29T00:52:23;16.77;;;2.78;;
51764;SDS011;37835;53.256;6.456;2023-12-29T00:54:49;15.40;;;3.38;;
51764;SDS011;37835;53.256;6.456;2023-12-29T00:57:14;15.25;;;2.95;;
51764;SDS011;37835;53.256;6.456;2023-12-29T00:59:40;19.63;;;3.22;;
51764;SDS011;37835;53.256;6.456;2023-12-29T01:02:06;18.70;;;3.25;;
51764;SDS011;37835;53.256;6.456;2023-12-29T01:04:33;22.23;;;2.97;;
51764;SDS011;37835;53.256;6.456;2023-12-29T01:06:59;17.42;;;3.47;;
51764;SDS011;37835;53.256;6.456;2023-12-29T01:09:26;18.73;;;3.45;;
51764;SDS011;37835;53.256;6.456;2023-12-29T01:11:51;20.65;;;3.20;;
51764;SDS011;37835;53.256;6.456;2023-12-29T01:14:17;14.95;;;2.92;;
51764;SDS011;37835;53.256;6.456;2023-12-29T01:16:42;21.33;;;3.35;;
51764;SDS011;37835;53.256;6.456;2023-12-29T01:19:08;17.55;;;3.78;;
51764;SDS011;37835;53.256;6.456;2023-12-29T01:21:37;16.35;;;3.67;;
51764;SDS011;37835;53.256;6.456;2023-12-29T01:24:03;18.05;;;3.95;;
51764;SDS011;37835;53.256;6.456;2023-12-29T01:26:29;19.58;;;3.22;;
51764;SDS011;37835;53.256;6.456;2023-12-29T01:28:55;17.75;;;3.45;;
51764;SDS011;37835;53.256;6.456;2023-12-29T01:31:28;21.05;;;3.40;;
51764;SDS011;37835;53.256;6.456;2023-12-29T01:33:55;20.65;;;3.20;;
51764;SDS011;37835;53.256;6.456;2023-12-29T01:36:21;18.50;;;3.50;;
51764;SDS011;37835;53.256;6.456;2023-12-29T01:38:46;19.27;;;3.65;;
51764;SDS011;37835;53.256;6.456;2023-12-29T01:41:12;23.45;;;3.75;;
51764;SDS011;37835;53.256;6.456;2023-12-29T01:46:25;22.83;;;3.97;;
51764;SDS011;37835;53.256;6.456;2023-12-29T01:48:53;21.92;;;3.58;;
51764;SDS011;37835;53.256;6.456;2023-12-29T01:51:20;17.42;;;3.10;;
51764;SDS011;37835;53.256;6.456;2023-12-29T01:53:49;22.48;;;3.45;;
51764;SDS011;37835;53.256;6.456;2023-12-29T01:56:15;16.50;;;2.92;;
51764;SDS011;37835;53.256;6.456;2023-12-29T01:58:42;18.15;;;2.85;;
51764;SDS011;37835;53.256;6.456;2023-12-29T02:01:09;15.00;;;3.17;;
51764;SDS011;37835;53.256;6.456;2023-12-29T02:03:35;16.77;;;3.00;;
51764;SDS011;37835;53.256;6.456;2023-12-29T02:06:01;18.45;;;2.80;;
51764;SDS011;37835;53.256;6.456;2023-12-29T02:08:27;15.60;;;2.80;;
51764;SDS011;37835;53.256;6.456;2023-12-29T02:10:54;15.23;;;2.00;;
51764;SDS011;37835;53.256;6.456;2023-12-29T02:13:20;10.75;;;2.40;;
51764;SDS011;37835;53.256;6.456;2023-12-29T02:15:48;16.48;;;2.67;;
51764;SDS011;37835;53.256;6.456;2023-12-29T02:18:17;16.88;;;2.67;;
51764;SDS011;37835;53.256;6.456;2023-12-29T02:20:45;17.73;;;3.47;;
51764;SDS011;37835;53.256;6.456;2023-12-29T02:23:11;11.15;;;2.20;;
51764;SDS011;37835;53.256;6.456;2023-12-29T02:25:37;18.55;;;3.45;;
51764;SDS011;37835;53.256;6.456;2023-12-29T02:30:48;13.43;;;2.75;;
51764;SDS011;37835;53.256;6.456;2023-12-29T02:33:22;21.92;;;2.60;;
51764;SDS011;37835;53.256;6.456;2023-12-29T02:35:51;16.20;;;2.97;;
51764;SDS011;37835;53.256;6.456;2023-12-29T02:38:20;17.77;;;3.08;;
51764;SDS011;37835;53.256;6.456;2023-12-29T02:40:46;16.73;;;2.70;;
51764;SDS011;37835;53.256;6.456;2023-12-29T02:43:12;29.52;;;3.58;;
51764;SDS011;37835;53.256;6.456;2023-12-29T02:45:37;23.20;;;3.50;;
51764;SDS011;37835;53.256;6.456;2023-12-29T02:48:03;16.90;;;2.63;;
51764;SDS011;37835;53.256;6.456;2023-12-29T02:50:29;20.23;;;2.97;;
51764;SDS011;37835;53.256;6.456;2023-12-29T02:52:55;17.92;;;2.50;;
51764;SDS011;37835;53.256;6.456;2023-12-29T02:55:20;27.90;;;2.95;;
51764;SDS011;37835;53.256;6.456;2023-12-29T02:57:46;21.45;;;3.47;;
51764;SDS011;37835;53.256;6.456;2023-12-29T03:00:12;21.50;;;3.42;;
51764;SDS011;37835;53.256;6.456;2023-12-29T03:02:38;24.13;;;3.10;;
51764;SDS011;37835;53.256;6.456;2023-12-29T03:05:04;16.73;;;3.05;;
51764;SDS011;37835;53.256;6.456;2023-12-29T03:07:30;26.83;;;4.32;;
51764;SDS011;37835;53.256;6.456;2023-12-29T03:09:55;26.23;;;5.00;;
51764;SDS011;37835;53.256;6.456;2023-12-29T03:12:21;31.90;;;4.90;;
51764;SDS011;37835;53.256;6.456;2023-12-29T03:14:47;29.92;;;5.43;;
51764;SDS011;37835;53.256;6.456;2023-12-29T03:17:12;31.55;;;4.57;;
51764;SDS011;37835;53.256;6.456;2023-12-29T03:19:38;39.45;;;5.85;;
51764;SDS011;37835;53.256;6.456;2023-12-29T03:22:04;30.05;;;5.40;;
51764;SDS011;37835;53.256;6.456;2023-12-29T03:24:29;38.33;;;5.50;;
51764;SDS011;37835;53.256;6.456;2023-12-29T03:26:56;44.10;;;7.20;;
51764;SDS011;37835;53.256;6.456;2023-12-29T03:29:21;44.30;;;7.05;;
51764;SDS011;37835;53.256;6.456;2023-12-29T03:31:47;39.60;;;6.43;;
51764;SDS011;37835;53.256;6.456;2023-12-29T03:34:13;39.50;;;6.32;;
51764;SDS011;37835;53.256;6.456;2023-12-29T03:36:39;36.20;;;6.40;;
51764;SDS011;37835;53.256;6.456;2023-12-29T03:39:04;33.67;;;5.10;;
51764;SDS011;37835;53.256;6.456;2023-12-29T03:41:31;31.60;;;5.10;;
51764;SDS011;37835;53.256;6.456;2023-12-29T03:43:56;45.15;;;7.63;;
51764;SDS011;37835;53.256;6.456;2023-12-29T03:46:24;31.52;;;5.40;;
51764;SDS011;37835;53.256;6.456;2023-12-29T03:48:50;34.47;;;5.78;;
51764;SDS011;37835;53.256;6.456;2023-12-29T03:51:16;32.95;;;5.20;;
51764;SDS011;37835;53.256;6.456;2023-12-29T03:53:43;29.88;;;5.32;;
51764;SDS011;37835;53.256;6.456;2023-12-29T03:56:14;29.75;;;4.57;;
51764;SDS011;37835;53.256;6.456;2023-12-29T03:58:41;30.30;;;4.70;;
51764;SDS011;37835;53.256;6.456;2023-12-29T04:01:11;28.95;;;4.93;;
51764;SDS011;37835;53.256;6.456;2023-12-29T04:03:37;25.55;;;4.22;;
51764;SDS011;37835;53.256;6.456;2023-12-29T04:06:04;31.08;;;5.15;;
51764;SDS011;37835;53.256;6.456;2023-12-29T04:08:30;27.98;;;4.85;;
51764;SDS011;37835;53.256;6.456;2023-12-29T04:10:56;36.08;;;5.50;;
51764;SDS011;37835;53.256;6.456;2023-12-29T04:13:21;38.83;;;6.10;;
51764;SDS011;37835;53.256;6.456;2023-12-29T04:15:47;29.80;;;5.28;;
51764;SDS011;37835;53.256;6.456;2023-12-29T04:18:13;33.20;;;5.35;;
51764;SDS011;37835;53.256;6.456;2023-12-29T04:20:39;37.72;;;5.18;;
51764;SDS011;37835;53.256;6.456;2023-12-29T04:23:05;40.25;;;5.50;;
51764;SDS011;37835;53.256;6.456;2023-12-29T04:25:32;37.20;;;5.25;;
51764;SDS011;37835;53.256;6.456;2023-12-29T04:27:58;34.78;;;4.75;;
51764;SDS011;37835;53.256;6.456;2023-12-29T04:30:24;38.78;;;5.63;;
51764;SDS011;37835;53.256;6.456;2023-12-29T04:32:50;32.53;;;5.20;;
51764;SDS011;37835;53.256;6.456;2023-12-29T04:35:15;30.13;;;4.50;;
51764;SDS011;37835;53.256;6.456;2023-12-29T04:37:43;31.58;;;5.25;;
51764;SDS011;37835;53.256;6.456;2023-12-29T04:40:12;29.88;;;4.45;;
51764;SDS011;37835;53.256;6.456;2023-12-29T04:42:38;27.70;;;4.20;;
51764;SDS011;37835;53.256;6.456;2023-12-29T04:45:04;32.85;;;4.78;;
51764;SDS011;37835;53.256;6.456;2023-12-29T04:47:30;29.77;;;4.95;;
51764;SDS011;37835;53.256;6.456;2023-12-29T04:49:56;28.33;;;4.22;;
51764;SDS011;37835;53.256;6.456;2023-12-29T04:52:22;33.28;;;4.57;;
51764;SDS011;37835;53.256;6.456;2023-12-29T04:54:48;29.33;;;4.43;;
51764;SDS011;37835;53.256;6.456;2023-12-29T04:57:13;26.63;;;4.07;;
51764;SDS011;37835;53.256;6.456;2023-12-29T04:59:39;24.08;;;4.97;;
51764;SDS011;37835;53.256;6.456;2023-12-29T05:02:05;29.48;;;5.18;;
51764;SDS011;37835;53.256;6.456;2023-12-29T05:04:30;36.97;;;6.32;;
51764;SDS011;37835;53.256;6.456;2023-12-29T05:06:56;29.80;;;4.60;;
51764;SDS011;37835;53.256;6.456;2023-12-29T05:09:21;29.92;;;4.55;;
51764;SDS011;37835;53.256;6.456;2023-12-29T05:11:47;34.78;;;4.32;;
51764;SDS011;37835;53.256;6.456;2023-12-29T05:14:13;33.95;;;4.38;;
51764;SDS011;37835;53.256;6.456;2023-12-29T05:16:39;30.92;;;4.75;;
51764;SDS011;37835;53.256;6.456;2023-12-29T05:19:09;28.25;;;5.47;;
51764;SDS011;37835;53.256;6.456;2023-12-29T05:21:34;33.85;;;5.18;;
51764;SDS011;37835;53.256;6.456;2023-12-29T05:24:00;28.38;;;4.68;;
51764;SDS011;37835;53.256;6.456;2023-12-29T05:26:25;33.05;;;5.00;;
51764;SDS011;37835;53.256;6.456;2023-12-29T05:28:51;26.65;;;4.50;;
51764;SDS011;37835;53.256;6.456;2023-12-29T05:31:17;28.25;;;4.68;;
51764;SDS011;37835;53.256;6.456;2023-12-29T05:33:43;26.27;;;4.75;;
51764;SDS011;37835;53.256;6.456;2023-12-29T05:36:10;26.38;;;4.55;;
51764;SDS011;37835;53.256;6.456;2023-12-29T05:38:36;38.30;;;5.07;;
51764;SDS011;37835;53.256;6.456;2023-12-29T05:41:02;33.15;;;5.07;;
51764;SDS011;37835;53.256;6.456;2023-12-29T05:43:30;27.52;;;4.65;;
51764;SDS011;37835;53.256;6.456;2023-12-29T05:45:57;30.35;;;5.22;;
51764;SDS011;37835;53.256;6.456;2023-12-29T05:48:23;30.65;;;4.43;;
51764;SDS011;37835;53.256;6.456;2023-12-29T05:50:49;32.65;;;5.20;;
51764;SDS011;37835;53.256;6.456;2023-12-29T05:53:15;25.80;;;4.32;;
51764;SDS011;37835;53.256;6.456;2023-12-29T05:55:41;35.58;;;5.18;;
51764;SDS011;37835;53.256;6.456;2023-12-29T05:58:07;29.02;;;4.70;;
51764;SDS011;37835;53.256;6.456;2023-12-29T06:00:33;28.25;;;4.70;;
51764;SDS011;37835;53.256;6.456;2023-12-29T06:02:59;30.50;;;5.38;;
51764;SDS011;37835;53.256;6.456;2023-12-29T06:05:25;27.25;;;4.65;;
51764;SDS011;37835;53.256;6.456;2023-12-29T06:07:50;42.85;;;5.70;;
51764;SDS011;37835;53.256;6.456;2023-12-29T06:10:16;39.78;;;6.03;;
51764;SDS011;37835;53.256;6.456;2023-12-29T06:12:41;29.90;;;4.47;;
51764;SDS011;37835;53.256;6.456;2023-12-29T06:15:07;36.00;;;4.45;;
51764;SDS011;37835;53.256;6.456;2023-12-29T06:17:33;26.38;;;5.15;;
51764;SDS011;37835;53.256;6.456;2023-12-29T06:20:00;28.73;;;5.32;;
51764;SDS011;37835;53.256;6.456;2023-12-29T06:22:28;27.27;;;4.57;;
51764;SDS011;37835;53.256;6.456;2023-12-29T06:24:54;36.15;;;5.05;;
51764;SDS011;37835;53.256;6.456;2023-12-29T06:27:20;34.33;;;4.97;;
51764;SDS011;37835;53.256;6.456;2023-12-29T06:29:45;32.15;;;5.05;;
51764;SDS011;37835;53.256;6.456;2023-12-29T06:32:11;29.20;;;5.40;;
51764;SDS011;37835;53.256;6.456;2023-12-29T06:34:37;42.30;;;5.35;;
51764;SDS011;37835;53.256;6.456;2023-12-29T06:37:02;29.08;;;4.57;;
51764;SDS011;37835;53.256;6.456;2023-12-29T06:39:28;29.70;;;4.18;;
51764;SDS011;37835;53.256;6.456;2023-12-29T06:41:54;37.15;;;6.43;;
51764;SDS011;37835;53.256;6.456;2023-12-29T06:44:19;38.97;;;4.68;;
51764;SDS011;37835;53.256;6.456;2023-12-29T06:46:45;34.20;;;4.68;;
51764;SDS011;37835;53.256;6.456;2023-12-29T06:49:10;29.00;;;4.70;;
51764;SDS011;37835;53.256;6.456;2023-12-29T06:51:36;30.67;;;4.75;;
51764;SDS011;37835;53.256;6.456;2023-12-29T06:54:04;26.98;;;4.60;;
51764;SDS011;37835;53.256;6.456;2023-12-29T06:56:29;34.20;;;4.93;;
51764;SDS011;37835;53.256;6.456;2023-12-29T06:58:55;29.90;;;4.85;;
51764;SDS011;37835;53.256;6.456;2023-12-29T07:01:21;33.95;;;5.43;;
51764;SDS011;37835;53.256;6.456;2023-12-29T07:03:46;39.72;;;5.93;;
51764;SDS011;37835;53.256;6.456;2023-12-29T07:06:12;26.80;;;4.03;;
51764;SDS011;37835;53.256;6.456;2023-12-29T07:08:38;26.75;;;5.10;;
51764;SDS011;37835;53.256;6.456;2023-12-29T07:11:03;32.47;;;5.13;;
51764;SDS011;37835;53.256;6.456;2023-12-29T07:13:29;33.25;;;5.07;;
51764;SDS011;37835;53.256;6.456;2023-12-29T07:15:55;35.38;;;5.00;;
51764;SDS011;37835;53.256;6.456;2023-12-29T07:18:20;35.80;;;4.82;;
51764;SDS011;37835;53.256;6.456;2023-12-29T07:20:46;32.50;;;5.35;;
51764;SDS011;37835;53.256;6.456;2023-12-29T07:23:12;28.05;;;4.45;;
51764;SDS011;37835;53.256;6.456;2023-12-29T07:25:37;32.88;;;5.47;;
51764;SDS011;37835;53.256;6.456;2023-12-29T07:28:03;30.55;;;4.50;;
51764;SDS011;37835;53.256;6.456;2023-12-29T07:30:29;33.67;;;5.03;;
51764;SDS011;37835;53.256;6.456;2023-12-29T07:32:55;33.70;;;5.28;;
51764;SDS011;37835;53.256;6.456;2023-12-29T07:35:20;34.65;;;5.10;;
51764;SDS011;37835;53.256;6.456;2023-12-29T07:37:46;34.80;;;4.95;;
51764;SDS011;37835;53.256;6.456;2023-12-29T07:40:12;28.08;;;5.03;;
51764;SDS011;37835;53.256;6.456;2023-12-29T07:42:41;42.88;;;5.38;;
51764;SDS011;37835;53.256;6.456;2023-12-29T07:45:09;34.15;;;5.50;;
51764;SDS011;37835;53.256;6.456;2023-12-29T07:47:35;32.13;;;4.80;;
51764;SDS011;37835;53.256;6.456;2023-12-29T07:50:01;28.10;;;4.97;;
51764;SDS011;37835;53.256;6.456;2023-12-29T07:52:28;35.92;;;5.03;;
51764;SDS011;37835;53.256;6.456;2023-12-29T07:54:54;37.28;;;4.60;;
51764;SDS011;37835;53.256;6.456;2023-12-29T07:57:20;29.65;;;5.15;;
51764;SDS011;37835;53.256;6.456;2023-12-29T07:59:46;33.75;;;5.72;;
51764;SDS011;37835;53.256;6.456;2023-12-29T08:02:12;30.73;;;5.05;;
51764;SDS011;37835;53.256;6.456;2023-12-29T08:04:38;37.05;;;5.20;;
51764;SDS011;37835;53.256;6.456;2023-12-29T08:07:04;32.60;;;5.30;;
51764;SDS011;37835;53.256;6.456;2023-12-29T08:09:29;30.92;;;5.05;;
51764;SDS011;37835;53.256;6.456;2023-12-29T08:11:55;36.33;;;4.95;;
51764;SDS011;37835;53.256;6.456;2023-12-29T08:14:21;30.17;;;4.00;;
51764;SDS011;37835;53.256;6.456;2023-12-29T08:16:47;27.73;;;4.50;;
51764;SDS011;37835;53.256;6.456;2023-12-29T08:19:12;37.80;;;4.88;;
51764;SDS011;37835;53.256;6.456;2023-12-29T08:21:40;22.52;;;4.22;;
51764;SDS011;37835;53.256;6.456;2023-12-29T08:24:06;36.50;;;5.43;;
51764;SDS011;37835;53.256;6.456;2023-12-29T08:26:31;24.98;;;4.80;;
51764;SDS011;37835;53.256;6.456;2023-12-29T08:28:57;30.05;;;4.30;;
51764;SDS011;37835;53.256;6.456;2023-12-29T08:31:26;34.53;;;5.32;;
51764;SDS011;37835;53.256;6.456;2023-12-29T08:33:53;30.33;;;4.95;;
51764;SDS011;37835;53.256;6.456;2023-12-29T08:36:20;29.15;;;5.18;;
51764;SDS011;37835;53.256;6.456;2023-12-29T08:38:46;29.65;;;4.32;;
51764;SDS011;37835;53.256;6.456;2023-12-29T08:41:15;28.35;;;3.83;;
51764;SDS011;37835;53.256;6.456;2023-12-29T08:43:41;24.30;;;3.58;;
51764;SDS011;37835;53.256;6.456;2023-12-29T08:46:07;28.13;;;4.78;;
51764;SDS011;37835;53.256;6.456;2023-12-29T08:48:33;26.17;;;4.10;;
51764;SDS011;37835;53.256;6.456;2023-12-29T08:50:59;30.63;;;5.00;;
51764;SDS011;37835;53.256;6.456;2023-12-29T08:53:25;27.92;;;3.80;;
51764;SDS011;37835;53.256;6.456;2023-12-29T08:55:50;33.15;;;4.53;;
51764;SDS011;37835;53.256;6.456;2023-12-29T08:58:16;33.72;;;4.40;;
51764;SDS011;37835;53.256;6.456;2023-12-29T09:00:42;32.00;;;4.45;;
51764;SDS011;37835;53.256;6.456;2023-12-29T09:03:07;29.58;;;4.53;;
51764;SDS011;37835;53.256;6.456;2023-12-29T09:05:33;28.98;;;3.97;;
51764;SDS011;37835;53.256;6.456;2023-12-29T09:07:59;25.55;;;4.50;;
51764;SDS011;37835;53.256;6.456;2023-12-29T09:10:24;24.13;;;3.78;;
51764;SDS011;37835;53.256;6.456;2023-12-29T09:12:52;31.15;;;4.53;;
51764;SDS011;37835;53.256;6.456;2023-12-29T09:15:17;27.40;;;4.25;;
51764;SDS011;37835;53.256;6.456;2023-12-29T09:17:43;34.35;;;4.82;;
51764;SDS011;37835;53.256;6.456;2023-12-29T09:20:09;34.38;;;4.97;;
51764;SDS011;37835;53.256;6.456;2023-12-29T09:22:35;33.85;;;4.93;;
51764;SDS011;37835;53.256;6.456;2023-12-29T09:25:00;27.67;;;3.97;;
51764;SDS011;37835;53.256;6.456;2023-12-29T09:27:26;25.40;;;4.60;;
51764;SDS011;37835;53.256;6.456;2023-12-29T09:29:52;33.30;;;5.13;;
51764;SDS011;37835;53.256;6.456;2023-12-29T09:32:18;34.22;;;5.25;;
51764;SDS011;37835;53.256;6.456;2023-12-29T09:34:43;35.13;;;5.50;;
51764;SDS011;37835;53.256;6.456;2023-12-29T09:37:12;37.00;;;4.75;;
51764;SDS011;37835;53.256;6.456;2023-12-29T09:39:39;40.55;;;5.50;;
51764;SDS011;37835;53.256;6.456;2023-12-29T09:42:04;32.17;;;5.10;;
51764;SDS011;37835;53.256;6.456;2023-12-29T09:44:32;29.45;;;5.20;;
51764;SDS011;37835;53.256;6.456;2023-12-29T09:47:01;34.67;;;4.60;;
51764;SDS011;37835;53.256;6.456;2023-12-29T09:49:38;31.55;;;5.45;;
51764;SDS011;37835;53.256;6.456;2023-12-29T09:52:06;25.25;;;4.13;;
51764;SDS011;37835;53.256;6.456;2023-12-29T09:54:34;31.67;;;4.85;;
51764;SDS011;37835;53.256;6.456;2023-12-29T09:57:01;30.25;;;4.80;;
51764;SDS011;37835;53.256;6.456;2023-12-29T09:59:28;27.60;;;4.80;;
51764;SDS011;37835;53.256;6.456;2023-12-29T10:01:55;31.77;;;5.53;;
51764;SDS011;37835;53.256;6.456;2023-12-29T10:04:21;25.40;;;4.35;;
51764;SDS011;37835;53.256;6.456;2023-12-29T10:06:47;28.05;;;4.03;;
51764;SDS011;37835;53.256;6.456;2023-12-29T10:09:15;24.38;;;3.67;;
51764;SDS011;37835;53.256;6.456;2023-12-29T10:11:45;31.08;;;4.95;;
51764;SDS011;37835;53.256;6.456;2023-12-29T10:16:50;30.42;;;4.00;;
51764;SDS011;37835;53.256;6.456;2023-12-29T10:19:37;26.27;;;4.75;;
51764;SDS011;37835;53.256;6.456;2023-12-29T10:24:43;27.40;;;3.97;;
51764;SDS011;37835;53.256;6.456;2023-12-29T10:27:14;25.30;;;3.90;;
51764;SDS011;37835;53.256;6.456;2023-12-29T10:29:40;23.83;;;3.47;;
51764;SDS011;37835;53.256;6.456;2023-12-29T10:32:08;22.65;;;4.13;;
51764;SDS011;37835;53.256;6.456;2023-12-29T10:34:34;17.98;;;3.08;;
51764;SDS011;37835;53.256;6.456;2023-12-29T10:37:07;23.13;;;3.53;;
51764;SDS011;37835;53.256;6.456;2023-12-29T10:39:55;21.73;;;3.33;;
51764;SDS011;37835;53.256;6.456;2023-12-29T10:42:21;17.98;;;3.45;;
51764;SDS011;37835;53.256;6.456;2023-12-29T10:44:47;22.17;;;3.60;;
51764;SDS011;37835;53.256;6.456;2023-12-29T10:47:18;26.20;;;3.55;;
51764;SDS011;37835;53.256;6.456;2023-12-29T10:49:44;21.92;;;3.75;;
51764;SDS011;37835;53.256;6.456;2023-12-29T10:52:13;20.25;;;3.95;;
51764;SDS011;37835;53.256;6.456;2023-12-29T10:54:40;26.48;;;3.67;;
51764;SDS011;37835;53.256;6.456;2023-12-29T10:57:08;30.63;;;4.55;;
51764;SDS011;37835;53.256;6.456;2023-12-29T10:59:35;25.30;;;3.80;;
51764;SDS011;37835;53.256;6.456;2023-12-29T11:02:01;23.38;;;3.30;;
51764;SDS011;37835;53.256;6.456;2023-12-29T11:04:28;18.20;;;3.10;;
51764;SDS011;37835;53.256;6.456;2023-12-29T11:06:54;23.85;;;3.30;;
51764;SDS011;37835;53.256;6.456;2023-12-29T11:09:29;22.08;;;3.40;;
51764;SDS011;37835;53.256;6.456;2023-12-29T11:12:00;19.55;;;3.28;;
51764;SDS011;37835;53.256;6.456;2023-12-29T11:14:27;19.63;;;2.72;;
51764;SDS011;37835;53.256;6.456;2023-12-29T11:16:54;18.75;;;3.47;;
51764;SDS011;37835;53.256;6.456;2023-12-29T11:19:20;14.23;;;2.95;;
51764;SDS011;37835;53.256;6.456;2023-12-29T11:21:46;15.77;;;2.88;;
51764;SDS011;37835;53.256;6.456;2023-12-29T11:24:14;16.45;;;2.40;;
51764;SDS011;37835;53.256;6.456;2023-12-29T11:26:39;17.98;;;3.50;;
51764;SDS011;37835;53.256;6.456;2023-12-29T11:29:07;21.25;;;3.58;;
51764;SDS011;37835;53.256;6.456;2023-12-29T11:31:33;14.98;;;3.25;;
51764;SDS011;37835;53.256;6.456;2023-12-29T11:34:15;17.45;;;2.70;;
51764;SDS011;37835;53.256;6.456;2023-12-29T11:36:46;22.40;;;3.17;;
51764;SDS011;37835;53.256;6.456;2023-12-29T11:41:54;21.45;;;2.95;;
51764;SDS011;37835;53.256;6.456;2023-12-29T11:44:27;16.60;;;3.05;;
51764;SDS011;37835;53.256;6.456;2023-12-29T11:46:53;17.15;;;2.75;;
51764;SDS011;37835;53.256;6.456;2023-12-29T11:49:19;20.50;;;3.35;;
51764;SDS011;37835;53.256;6.456;2023-12-29T11:51:49;16.65;;;3.60;;
51764;SDS011;37835;53.256;6.456;2023-12-29T11:54:24;23.83;;;3.47;;
51764;SDS011;37835;53.256;6.456;2023-12-29T11:56:54;20.98;;;3.08;;
51764;SDS011;37835;53.256;6.456;2023-12-29T12:12:52;20.83;;;3.20;;
51764;SDS011;37835;53.256;6.456;2023-12-29T12:17:58;20.02;;;3.30;;
51764;SDS011;37835;53.256;6.456;2023-12-29T12:20:32;13.05;;;2.35;;
51764;SDS011;37835;53.256;6.456;2023-12-29T12:22:59;18.38;;;2.88;;
51764;SDS011;37835;53.256;6.456;2023-12-29T12:25:26;21.05;;;2.88;;
51764;SDS011;37835;53.256;6.456;2023-12-29T12:27:55;15.65;;;2.90;;
51764;SDS011;37835;53.256;6.456;2023-12-29T12:30:22;16.15;;;3.05;;
51764;SDS011;37835;53.256;6.456;2023-12-29T12:32:57;14.90;;;2.63;;
51764;SDS011;37835;53.256;6.456;2023-12-29T12:35:24;16.42;;;3.05;;
51764;SDS011;37835;53.256;6.456;2023-12-29T12:38:07;20.08;;;3.22;;
51764;SDS011;37835;53.256;6.456;2023-12-29T12:40:41;13.90;;;2.83;;
51764;SDS011;37835;53.256;6.456;2023-12-29T12:43:07;21.05;;;3.35;;
51764;SDS011;37835;53.256;6.456;2023-12-29T12:45:33;21.83;;;2.92;;
51764;SDS011;37835;53.256;6.456;2023-12-29T12:48:11;13.27;;;2.70;;
51764;SDS011;37835;53.256;6.456;2023-12-29T12:50:45;20.25;;;3.33;;
51764;SDS011;37835;53.256;6.456;2023-12-29T12:53:12;16.05;;;3.28;;
51764;SDS011;37835;53.256;6.456;2023-12-29T12:55:45;21.90;;;3.42;;
51764;SDS011;37835;53.256;6.456;2023-12-29T12:58:19;20.05;;;3.10;;
51764;SDS011;37835;53.256;6.456;2023-12-29T13:00:48;24.88;;;3.75;;
51764;SDS011;37835;53.256;6.456;2023-12-29T13:03:15;17.75;;;3.50;;
51764;SDS011;37835;53.256;6.456;2023-12-29T13:05:41;17.52;;;2.70;;
51764;SDS011;37835;53.256;6.456;2023-12-29T13:08:07;14.43;;;3.15;;
51764;SDS011;37835;53.256;6.456;2023-12-29T13:10:34;15.73;;;3.03;;
51764;SDS011;37835;53.256;6.456;2023-12-29T13:13:06;26.42;;;3.63;;
51764;SDS011;37835;53.256;6.456;2023-12-29T13:15:32;23.33;;;3.25;;
51764;SDS011;37835;53.256;6.456;2023-12-29T13:17:58;22.20;;;3.45;;
51764;SDS011;37835;53.256;6.456;2023-12-29T13:20:24;20.77;;;3.03;;
51764;SDS011;37835;53.256;6.456;2023-12-29T13:22:50;24.23;;;6.53;;
51764;SDS011;37835;53.256;6.456;2023-12-29T13:25:34;21.42;;;3.55;;
51764;SDS011;37835;53.256;6.456;2023-12-29T13:28:00;21.63;;;3.50;;
51764;SDS011;37835;53.256;6.456;2023-12-29T13:30:28;15.43;;;3.20;;
51764;SDS011;37835;53.256;6.456;2023-12-29T13:32:54;19.38;;;2.80;;
51764;SDS011;37835;53.256;6.456;2023-12-29T13:35:26;16.00;;;2.75;;
51764;SDS011;37835;53.256;6.456;2023-12-29T13:38:05;19.10;;;3.13;;
51764;SDS011;37835;53.256;6.456;2023-12-29T13:43:02;17.48;;;2.80;;
51764;SDS011;37835;53.256;6.456;2023-12-29T13:45:29;21.23;;;2.63;;
51764;SDS011;37835;53.256;6.456;2023-12-29T13:47:56;25.38;;;3.55;;
51764;SDS011;37835;53.256;6.456;2023-12-29T13:50:24;16.58;;;3.17;;
51764;SDS011;37835;53.256;6.456;2023-12-29T13:52:50;12.90;;;2.50;;
51764;SDS011;37835;53.256;6.456;2023-12-29T13:55:22;15.48;;;3.47;;
51764;SDS011;37835;53.256;6.456;2023-12-29T13:57:49;20.70;;;3.40;;
51764;SDS011;37835;53.256;6.456;2023-12-29T14:02:48;25.03;;;3.30;;
51764;SDS011;37835;53.256;6.456;2023-12-29T14:05:23;13.27;;;2.50;;
51764;SDS011;37835;53.256;6.456;2023-12-29T14:10:20;12.70;;;2.95;;
51764;SDS011;37835;53.256;6.456;2023-12-29T14:12:46;26.15;;;3.75;;
51764;SDS011;37835;53.256;6.456;2023-12-29T14:15:12;17.33;;;2.65;;
51764;SDS011;37835;53.256;6.456;2023-12-29T14:17:38;19.05;;;2.97;;
51764;SDS011;37835;53.256;6.456;2023-12-29T14:20:07;18.95;;;3.10;;
51764;SDS011;37835;53.256;6.456;2023-12-29T14:22:34;16.75;;;2.70;;
51764;SDS011;37835;53.256;6.456;2023-12-29T14:25:03;18.65;;;2.80;;
51764;SDS011;37835;53.256;6.456;2023-12-29T14:27:30;18.92;;;2.58;;
51764;SDS011;37835;53.256;6.456;2023-12-29T14:29:56;19.48;;;3.50;;
51764;SDS011;37835;53.256;6.456;2023-12-29T14:32:23;23.73;;;3.15;;
51764;SDS011;37835;53.256;6.456;2023-12-29T14:34:49;14.70;;;3.20;;
51764;SDS011;37835;53.256;6.456;2023-12-29T14:37:21;20.83;;;3.25;;
51764;SDS011;37835;53.256;6.456;2023-12-29T14:39:50;22.33;;;3.08;;
51764;SDS011;37835;53.256;6.456;2023-12-29T14:42:16;14.98;;;2.88;;
51764;SDS011;37835;53.256;6.456;2023-12-29T14:44:45;20.58;;;4.50;;
51764;SDS011;37835;53.256;6.456;2023-12-29T14:47:11;20.00;;;2.75;;
51764;SDS011;37835;53.256;6.456;2023-12-29T14:49:38;17.58;;;3.08;;
51764;SDS011;37835;53.256;6.456;2023-12-29T14:52:04;23.98;;;3.40;;
51764;SDS011;37835;53.256;6.456;2023-12-29T14:54:29;17.00;;;2.70;;
51764;SDS011;37835;53.256;6.456;2023-12-29T14:56:55;16.30;;;2.97;;
51764;SDS011;37835;53.256;6.456;2023-12-29T14:59:21;19.08;;;2.88;;
51764;SDS011;37835;53.256;6.456;2023-12-29T15:01:46;14.82;;;2.83;;
51764;SDS011;37835;53.256;6.456;2023-12-29T15:04:12;20.38;;;2.78;;
51764;SDS011;37835;53.256;6.456;2023-12-29T15:06:40;14.27;;;2.78;;
51764;SDS011;37835;53.256;6.456;2023-12-29T15:09:07;25.45;;;3.03;;